Time;durP1;ratioP1;P1;durP2;ratioP2;P2;SDS_P1;SDS_P2;PMS_P1;PMS_P2;Temp;Humidity;BMP_temperature;BMP_pressure;BME280_temperature;BME280_humidity;BME280_pressure;Samples;Min_cycle;Max_cycle;Signal;HPM_P1;HPM_P2
2023/05/21 00:00:34;;;;;;;;;;;;;;;11.66;88.97;102929.41;5013240;28;20400;-67
2023/05/21 00:03:00;;;;;;;;;;;;;;;11.64;89.71;102920.69;5013035;28;19957;-68
2023/05/21 00:05:25;;;;;;;;;;;;;;;11.62;89.50;102929.78;5014689;28;20361;-67
2023/05/21 00:07:52;;;;;;;;;;;;;;;11.59;89.33;102930.00;5015457;28;19914;-67
2023/05/21 00:10:17;;;;;;;;;;;;;;;11.56;88.55;102922.22;5014896;28;20345;-66
2023/05/21 00:12:44;;;;;;;;;;;;;;;11.54;89.46;102926.81;5013473;28;19913;-66
2023/05/21 00:15:10;;;;;;;;;;;;;;;11.51;90.37;102927.06;5013213;28;20315;-67
2023/05/21 00:17:35;;;;;;;;;;;;;;;11.47;90.81;102927.28;4995292;28;19920;-67
2023/05/21 00:20:04;;;;;;;;;;;;;;;11.44;90.43;102930.19;5012946;28;20460;-66
2023/05/21 00:22:32;;;;;;;;;;;;;;;11.42;91.03;102926.78;5012929;28;19921;-66
2023/05/21 00:24:57;;;;;;;;;;;;;;;11.37;91.20;102931.63;5012964;28;20004;-67
2023/05/21 00:27:23;;;;;;;;;;;;;;;11.33;91.97;102935.50;5012763;28;20060;-68
2023/05/21 00:29:48;;;;;;;;;;;;;;;11.29;92.24;102938.50;5012609;28;20281;-67
2023/05/21 00:32:13;;;;;;;;;;;;;;;11.25;91.72;102937.84;4997174;28;19920;-67
2023/05/21 00:34:39;;;;;;;;;;;;;;;11.22;92.50;102932.75;5016740;28;19914;-68
2023/05/21 00:37:04;;;;;;;;;;;;;;;11.17;93.24;102938.44;5016439;28;20265;-68
2023/05/21 00:39:29;;;;;;;;;;;;;;;11.13;93.27;102925.44;5016620;28;20402;-68
2023/05/21 00:41:55;;;;;;;;;;;;;;;11.07;94.51;102926.75;5016572;28;19987;-67
2023/05/21 00:44:21;;;;;;;;;;;;;;;11.01;94.87;102934.34;5016498;28;20435;-67
2023/05/21 00:46:47;;;;;;;;;;;;;;;10.96;95.09;102929.34;5016396;28;19921;-67
2023/05/21 00:49:13;;;;;;;;;;;;;;;10.93;95.64;102928.72;5016363;28;20254;-68
2023/05/21 00:51:39;;;;;;;;;;;;;;;10.90;95.17;102934.28;5015846;28;20012;-67
2023/05/21 00:54:04;;;;;;;;;;;;;;;10.86;95.44;102929.16;5016140;28;20004;-66
2023/05/21 00:56:30;;;;;;;;;;;;;;;10.83;96.10;102926.72;5016230;28;19952;-68
2023/05/21 00:58:58;;;;;;;;;;;;;;;10.79;96.78;102933.25;5016523;28;19914;-67
2023/05/21 01:01:24;;;;;;;;;;;;;;;10.76;97.10;102928.16;5016577;28;19992;-67
2023/05/21 01:03:53;;;;;;;;;;;;;;;10.73;95.88;102939.03;5016679;28;19920;-68
2023/05/21 01:06:19;;;;;;;;;;;;;;;10.71;96.92;102934.78;5015806;28;19913;-68
2023/05/21 01:08:45;;;;;;;;;;;;;;;10.68;97.22;102935.81;5016125;28;19924;-67
2023/05/21 01:11:11;;;;;;;;;;;;;;;10.65;97.37;102936.03;5016041;28;19913;-66
2023/05/21 01:13:37;;;;;;;;;;;;;;;10.62;97.54;102936.25;5016218;28;19959;-67
2023/05/21 01:16:05;;;;;;;;;;;;;;;10.61;97.83;102929.22;5016234;28;20273;-68
2023/05/21 01:18:33;;;;;;;;;;;;;;;10.58;98.23;102926.78;5016210;28;19920;-66
2023/05/21 01:21:00;;;;;;;;;;;;;;;10.57;97.99;102922.41;5015948;28;19936;-67
2023/05/21 01:23:26;;;;;;;;;;;;;;;10.56;98.48;102926.06;5016012;28;19917;-68
2023/05/21 01:25:51;;;;;;;;;;;;;;;10.54;98.82;102922.66;5015664;28;19920;-68
2023/05/21 01:28:16;;;;;;;;;;;;;;;10.53;98.82;102923.59;5015611;28;19920;-68
2023/05/21 01:30:42;;;;;;;;;;;;;;;10.51;98.90;102923.72;5015636;28;19921;-69
2023/05/21 01:33:16;;;;;;;;;;;;;;;10.52;98.83;102924.56;4998092;28;19913;-68
2023/05/21 01:35:46;;;;;;;;;;;;;;;10.51;99.14;102925.53;5015753;28;19919;-68
2023/05/21 01:38:14;;;;;;;;;;;;;;;10.51;98.35;102920.19;5015784;28;20360;-67
2023/05/21 01:40:43;;;;;;;;;;;;;;;10.50;99.33;102926.50;5015692;28;19952;-67
2023/05/21 01:43:09;;;;;;;;;;;;;;;10.50;98.80;102926.50;5015332;28;20376;-67
2023/05/21 01:45:37;;;;;;;;;;;;;;;10.50;99.36;102926.50;4997650;28;19964;-66
2023/05/21 01:48:04;;;;;;;;;;;;;;;10.50;99.51;102922.03;5015105;28;19917;-66
2023/05/21 01:50:31;;;;;;;;;;;;;;;10.50;100.00;102922.03;5015389;28;20436;-66
2023/05/21 01:52:57;;;;;;;;;;;;;;;10.50;99.69;102923.84;5015290;28;20020;-67
2023/05/21 01:55:23;;;;;;;;;;;;;;;10.51;100.00;102917.53;5015301;28;19913;-67
2023/05/21 01:57:51;;;;;;;;;;;;;;;10.52;100.00;102922.75;5014978;28;20382;-67
2023/05/21 02:00:17;;;;;;;;;;;;;;;10.54;100.00;102927.97;5015072;28;19914;-67
2023/05/21 02:02:42;;;;;;;;;;;;;;;10.57;100.00;102919.75;4997149;28;20273;-67
2023/05/21 02:05:08;;;;;;;;;;;;;;;10.60;100.00;102927.53;5015189;28;19913;-66
2023/05/21 02:07:33;;;;;;;;;;;;;;;10.62;100.00;102922.94;5015104;28;19914;-67
2023/05/21 02:09:59;;;;;;;;;;;;;;;10.64;100.00;102923.69;5014890;28;19959;-67
2023/05/21 02:12:24;;;;;;;;;;;;;;;10.69;100.00;102931.34;5014754;28;20412;-66
2023/05/21 02:14:50;;;;;;;;;;;;;;;10.71;100.00;102924.97;5015028;28;20000;-67
2023/05/21 02:17:16;;;;;;;;;;;;;;;10.78;100.00;102933.34;5014746;28;20020;-67
2023/05/21 02:19:43;;;;;;;;;;;;;;;10.80;100.00;102929.63;5014839;28;19960;-66
2023/05/21 02:22:09;;;;;;;;;;;;;;;10.81;100.00;102926.00;5014453;28;20312;-66
2023/05/21 02:24:34;;;;;;;;;;;;;;;10.85;100.00;102921.28;5014873;28;19921;-68
2023/05/21 02:26:59;;;;;;;;;;;;;;;10.88;100.00;102925.53;5014542;28;19960;-68
2023/05/21 02:29:25;;;;;;;;;;;;;;;10.92;100.00;102922.53;5014420;28;19918;-67
2023/05/21 02:31:50;;;;;;;;;;;;;;;10.95;100.00;102922.31;5014558;28;19921;-66
2023/05/21 02:34:16;;;;;;;;;;;;;;;11.01;100.00;102923.69;4996958;28;20042;-68
2023/05/21 02:36:41;;;;;;;;;;;;;;;11.04;100.00;102920.78;5014346;28;20262;-66
2023/05/21 02:39:07;;;;;;;;;;;;;;;11.08;100.00;102916.94;5014465;28;20336;-66
2023/05/21 02:41:32;;;;;;;;;;;;;;;11.11;100.00;102920.22;5014448;28;20262;-67
2023/05/21 02:43:57;;;;;;;;;;;;;;;11.16;100.00;102922.53;5014125;28;19956;-67
2023/05/21 02:46:22;;;;;;;;;;;;;;;11.20;100.00;102916.00;5014125;28;19992;-67
2023/05/21 02:48:48;;;;;;;;;;;;;;;11.23;100.00;102917.59;5014238;28;19924;-67
2023/05/21 02:51:13;;;;;;;;;;;;;;;11.25;100.00;102916.50;5014422;28;19944;-68
2023/05/21 02:53:39;;;;;;;;;;;;;;;11.28;100.00;102913.66;5013716;28;19921;-68
2023/05/21 02:56:04;;;;;;;;;;;;;;;11.37;100.00;102912.09;5013891;28;20052;-66
2023/05/21 02:58:29;;;;;;;;;;;;;;;11.83;100.00;102920.13;5013952;28;19936;-67
2023/05/21 03:00:55;;;;;;;;;;;;;;;13.44;100.00;102908.91;5013709;28;19925;-67
2023/05/21 03:03:20;;;;;;;;;;;;;;;15.54;92.07;102913.44;5014336;28;19921;-66
2023/05/21 03:05:47;;;;;;;;;;;;;;;17.41;81.37;102912.34;5013931;28;19959;-67
2023/05/21 03:08:12;;;;;;;;;;;;;;;18.70;77.55;102912.31;4996335;28;20036;-67
2023/05/21 03:10:37;;;;;;;;;;;;;;;19.50;71.42;102921.53;5013806;28;19956;-67
2023/05/21 03:13:04;;;;;;;;;;;;;;;20.01;68.80;102919.50;5013702;28;20012;-68
2023/05/21 03:15:32;;;;;;;;;;;;;;;20.63;66.81;102916.94;5013948;28;20013;-67
2023/05/21 03:17:57;;;;;;;;;;;;;;;21.12;65.09;102932.06;5013564;28;19919;-67
2023/05/21 03:20:23;;;;;;;;;;;;;;;21.61;62.88;102924.41;5014100;28;20004;-67
2023/05/21 03:22:48;;;;;;;;;;;;;;;21.79;60.96;102930.34;5013631;28;19914;-67
2023/05/21 03:25:14;;;;;;;;;;;;;;;22.14;59.27;102925.25;5013700;28;19913;-67
2023/05/21 03:27:39;;;;;;;;;;;;;;;22.47;57.93;102931.13;5013393;28;19913;-66
2023/05/21 03:30:05;;;;;;;;;;;;;;;22.08;57.95;102932.28;5013272;28;19917;-66
2023/05/21 03:32:32;;;;;;;;;;;;;;;20.63;60.63;102925.06;5013488;28;19935;-67
2023/05/21 03:34:58;;;;;;;;;;;;;;;18.94;65.46;102935.00;5013459;28;19974;-68
2023/05/21 03:37:23;;;;;;;;;;;;;;;17.69;69.48;102927.41;5013180;28;20412;-67
2023/05/21 03:39:48;;;;;;;;;;;;;;;17.50;72.26;102925.72;5013272;28;19913;-68
2023/05/21 03:42:14;;;;;;;;;;;;;;;17.17;72.92;102919.19;5013210;28;19925;-67
2023/05/21 03:44:39;;;;;;;;;;;;;;;16.68;74.75;102925.88;5013249;28;19913;-67
2023/05/21 03:47:05;;;;;;;;;;;;;;;16.37;75.29;102922.59;5013363;28;20095;-67
2023/05/21 03:49:30;;;;;;;;;;;;;;;16.09;76.29;102919.03;5013212;28;19924;-67
2023/05/21 03:51:55;;;;;;;;;;;;;;;16.66;76.51;102922.50;5013194;28;19913;-67
2023/05/21 03:54:21;;;;;;;;;;;;;;;18.38;71.96;102921.09;5013049;28;19913;-67
2023/05/21 03:56:46;;;;;;;;;;;;;;;19.88;65.03;102923.75;5013006;28;19957;-68
2023/05/21 03:59:11;;;;;;;;;;;;;;;20.99;59.50;102925.34;5012905;28;19913;-67
2023/05/21 04:01:37;;;;;;;;;;;;;;;21.80;55.93;102917.63;5013054;28;20326;-68
2023/05/21 04:04:03;;;;;;;;;;;;;;;22.37;56.02;102917.03;5013166;28;19913;-67
2023/05/21 04:06:29;;;;;;;;;;;;;;;22.90;49.61;102921.25;5012107;28;19919;-67
2023/05/21 04:08:54;;;;;;;;;;;;;;;23.26;49.55;102925.81;5012913;28;19914;-67
2023/05/21 04:11:19;;;;;;;;;;;;;;;23.58;47.27;102925.28;5012741;28;19914;-67
2023/05/21 04:13:46;;;;;;;;;;;;;;;23.85;47.12;102922.78;5012672;28;19922;-66
2023/05/21 04:16:13;;;;;;;;;;;;;;;23.98;44.84;102922.84;5012841;28;19914;-67
2023/05/21 04:18:40;;;;;;;;;;;;;;;23.93;43.85;102923.47;5012822;28;19914;-67
2023/05/21 04:21:06;;;;;;;;;;;;;;;23.89;44.06;102924.06;5012699;28;19918;-67
2023/05/21 04:23:32;;;;;;;;;;;;;;;23.99;43.34;102919.09;5012710;28;19917;-68
2023/05/21 04:25:57;;;;;;;;;;;;;;;23.97;42.46;102926.63;5012542;28;19913;-67
2023/05/21 04:28:23;;;;;;;;;;;;;;;23.89;42.78;102918.63;5012540;28;19914;-67
2023/05/21 04:30:48;;;;;;;;;;;;;;;23.86;42.73;102916.28;5012743;28;19920;-69
2023/05/21 04:33:16;;;;;;;;;;;;;;;23.65;42.37;102920.75;5012686;28;19921;-68
2023/05/21 04:35:43;;;;;;;;;;;;;;;23.59;43.12;102918.81;5012655;28;19913;-68
2023/05/21 04:38:08;;;;;;;;;;;;;;;23.66;42.57;102922.41;5012410;28;19914;-67
2023/05/21 04:40:34;;;;;;;;;;;;;;;23.77;41.39;102919.19;5012543;28;19960;-67
2023/05/21 04:43:00;;;;;;;;;;;;;;;23.83;41.18;102920.25;5012341;28;19917;-66
2023/05/21 04:45:26;;;;;;;;;;;;;;;23.92;41.40;102920.94;5012432;28;19925;-67
2023/05/21 04:47:52;;;;;;;;;;;;;;;24.07;40.21;102924.41;5012517;28;19922;-68
2023/05/21 04:50:19;;;;;;;;;;;;;;;24.12;40.76;102916.47;5012563;28;19925;-68
2023/05/21 04:52:44;;;;;;;;;;;;;;;24.40;39.74;102920.00;5012620;28;19914;-68
2023/05/21 04:55:10;;;;;;;;;;;;;;;24.66;40.13;102913.84;5012487;28;19913;-67
2023/05/21 04:57:35;;;;;;;;;;;;;;;24.88;39.01;102909.09;5012285;28;19917;-67
2023/05/21 05:00:02;;;;;;;;;;;;;;;24.78;38.21;102911.34;5012534;28;20067;-67
2023/05/21 05:02:29;;;;;;;;;;;;;;;24.56;39.86;102920.69;5012429;28;19991;-67
2023/05/21 05:04:54;;;;;;;;;;;;;;;24.15;39.14;102915.22;5012073;28;19922;-68
2023/05/21 05:07:20;;;;;;;;;;;;;;;23.64;37.58;102902.75;5012361;28;19914;-67
2023/05/21 05:09:45;;;;;;;;;;;;;;;23.22;36.49;102908.22;5012211;28;20301;-68
2023/05/21 05:12:11;;;;;;;;;;;;;;;22.71;36.67;102909.09;5012255;28;19997;-68
2023/05/21 05:14:36;;;;;;;;;;;;;;;21.71;38.65;102900.59;5012331;28;20019;-68
2023/05/21 05:17:01;;;;;;;;;;;;;;;20.50;41.76;102894.13;5012712;28;19913;-67
2023/05/21 05:19:27;;;;;;;;;;;;;;;19.65;42.74;102900.09;5015760;28;20015;-69
2023/05/21 05:21:52;;;;;;;;;;;;;;;18.92;44.44;102897.34;5015828;28;20419;-69
2023/05/21 05:24:18;;;;;;;;;;;;;;;18.43;46.77;102894.47;4998238;28;20330;-68
2023/05/21 05:26:43;;;;;;;;;;;;;;;18.09;47.15;102893.63;5015629;28;20011;-68
2023/05/21 05:29:08;;;;;;;;;;;;;;;17.86;48.51;102896.03;5015851;28;20365;-68
2023/05/21 05:31:33;;;;;;;;;;;;;;;17.68;49.58;102895.25;5015819;28;20428;-68
2023/05/21 05:33:59;;;;;;;;;;;;;;;17.61;50.08;102897.66;5015636;28;19914;-67
2023/05/21 05:36:25;;;;;;;;;;;;;;;17.62;49.81;102902.03;5015465;28;20332;-68
2023/05/21 05:38:50;;;;;;;;;;;;;;;17.51;49.65;102896.91;5015360;28;19913;-66
2023/05/21 05:41:15;;;;;;;;;;;;;;;17.52;50.21;102899.47;5015249;28;20262;-66
2023/05/21 05:43:40;;;;;;;;;;;;;;;17.56;48.48;102894.59;5015945;28;20010;-68
2023/05/21 05:46:06;;;;;;;;;;;;;;;17.68;49.08;102888.00;5015333;28;20014;-67
2023/05/21 05:48:31;;;;;;;;;;;;;;;17.72;48.68;102892.06;5015541;28;19918;-67
2023/05/21 05:50:56;;;;;;;;;;;;;;;17.73;46.65;102890.22;5015310;28;19914;-67
2023/05/21 05:53:22;;;;;;;;;;;;;;;17.73;47.39;102884.81;5015189;28;20017;-67
2023/05/21 05:55:47;;;;;;;;;;;;;;;17.67;47.26;102882.75;5015111;28;19914;-67
2023/05/21 05:58:12;;;;;;;;;;;;;;;17.66;46.16;102889.97;5014971;28;19996;-67
2023/05/21 06:00:38;;;;;;;;;;;;;;;17.66;46.81;102887.28;5015110;28;20432;-65
2023/05/21 06:03:03;;;;;;;;;;;;;;;17.69;47.89;102884.31;5014821;28;19921;-67
2023/05/21 06:05:29;;;;;;;;;;;;;;;17.71;46.90;102882.28;5014901;28;19913;-68
2023/05/21 06:07:54;;;;;;;;;;;;;;;17.74;47.64;102881.97;5014675;28;19925;-69
2023/05/21 06:10:19;;;;;;;;;;;;;;;17.77;47.17;102884.34;5014698;28;20016;-66
2023/05/21 06:12:46;;;;;;;;;;;;;;;17.72;45.56;102880.44;5014828;28;19914;-67
2023/05/21 06:15:13;;;;;;;;;;;;;;;17.65;46.60;102872.97;5014951;28;19921;-66
2023/05/21 06:17:39;;;;;;;;;;;;;;;17.69;45.79;102872.69;5014652;28;19932;-68
2023/05/21 06:20:04;;;;;;;;;;;;;;;17.77;47.27;102875.41;5014609;28;19913;-67
2023/05/21 06:22:30;;;;;;;;;;;;;;;17.87;47.48;102871.59;5014567;28;20281;-67
2023/05/21 06:24:56;;;;;;;;;;;;;;;17.94;46.45;102867.28;5014483;28;19914;-67
2023/05/21 06:27:21;;;;;;;;;;;;;;;18.01;47.49;102875.56;5014667;28;19921;-69
2023/05/21 06:29:46;;;;;;;;;;;;;;;18.10;46.98;102876.44;5013567;28;19917;-68
2023/05/21 06:32:12;;;;;;;;;;;;;;;18.13;46.35;102871.56;5014473;28;19920;-71
2023/05/21 06:34:37;;;;;;;;;;;;;;;18.19;46.09;102867.38;5014299;28;19914;-65
2023/05/21 06:37:02;;;;;;;;;;;;;;;18.16;40.95;102871.25;5014490;28;20463;-67
2023/05/21 06:39:27;;;;;;;;;;;;;;;18.09;41.31;102869.38;5014124;28;19913;-66
2023/05/21 06:41:53;;;;;;;;;;;;;;;17.99;42.05;102866.81;5014031;28;20389;-67
2023/05/21 06:44:18;;;;;;;;;;;;;;;17.87;42.13;102870.75;5014426;28;20017;-68
2023/05/21 06:46:44;;;;;;;;;;;;;;;17.83;42.46;102869.38;5014418;28;19987;-67
2023/05/21 06:49:10;;;;;;;;;;;;;;;17.88;43.10;102861.66;5014133;28;19917;-67
2023/05/21 06:51:35;;;;;;;;;;;;;;;17.95;40.88;102860.88;5014254;28;19917;-67
2023/05/21 06:54:03;;;;;;;;;;;;;;;17.94;41.12;102861.91;5013406;28;20209;-67
2023/05/21 06:56:28;;;;;;;;;;;;;;;17.91;40.23;102856.78;5013716;28;20000;-66
2023/05/21 06:58:54;;;;;;;;;;;;;;;17.88;40.39;102850.88;5014446;28;19971;-67
2023/05/21 07:01:21;;;;;;;;;;;;;;;17.78;40.21;102852.84;5013869;28;20379;-67
2023/05/21 07:03:46;;;;;;;;;;;;;;;17.83;41.27;102842.44;5013694;28;20385;-66
2023/05/21 07:06:12;;;;;;;;;;;;;;;17.89;40.68;102849.88;5013780;28;19940;-67
2023/05/21 07:08:37;;;;;;;;;;;;;;;17.94;41.38;102847.56;5013708;28;19920;-66
2023/05/21 07:11:02;;;;;;;;;;;;;;;18.00;41.77;102844.22;5013611;28;20261;-66
2023/05/21 07:13:28;;;;;;;;;;;;;;;18.01;41.15;102840.53;5013658;28;20417;-68
2023/05/21 07:15:53;;;;;;;;;;;;;;;17.91;40.68;102846.00;5014124;28;19967;-67
2023/05/21 07:18:19;;;;;;;;;;;;;;;17.84;41.10;102844.13;5013565;28;20304;-65
2023/05/21 07:20:44;;;;;;;;;;;;;;;17.88;41.97;102834.72;5013530;28;19960;-68
2023/05/21 07:23:09;;;;;;;;;;;;;;;17.97;41.67;102835.63;5013435;28;20381;-66
2023/05/21 07:25:35;;;;;;;;;;;;;;;18.07;42.13;102831.78;5013247;28;19918;-66
2023/05/21 07:28:00;;;;;;;;;;;;;;;18.14;42.14;102827.41;5013553;28;19914;-67
2023/05/21 07:30:25;;;;;;;;;;;;;;;18.23;42.56;102828.31;5013474;28;19992;-67
2023/05/21 07:32:51;;;;;;;;;;;;;;;18.25;41.53;102827.16;5013570;28;20448;-71
2023/05/21 07:35:17;;;;;;;;;;;;;;;18.20;40.20;102829.47;5013169;28;19913;-69
2023/05/21 07:37:43;;;;;;;;;;;;;;;18.15;40.51;102821.03;4995578;28;20288;-69
2023/05/21 07:40:08;;;;;;;;;;;;;;;18.09;41.51;102816.28;5012936;28;19914;-69
2023/05/21 07:42:34;;;;;;;;;;;;;;;18.11;42.88;102819.66;5013515;28;19960;-72
2023/05/21 07:45:01;;;;;;;;;;;;;;;18.18;41.99;102811.75;5012273;28;19918;-68
2023/05/21 07:47:26;;;;;;;;;;;;;;;18.22;42.18;102810.44;4995997;28;20112;-68
2023/05/21 07:49:51;;;;;;;;;;;;;;;18.24;40.26;102803.88;4993386;28;19957;-71
2023/05/21 07:52:16;;;;;;;;;;;;;;;18.22;39.05;102818.53;4993297;28;20001;-69
2023/05/21 07:54:42;;;;;;;;;;;;;;;18.25;40.24;102821.75;5000714;28;19914;-71
2023/05/21 07:57:07;;;;;;;;;;;;;;;18.26;39.85;102809.13;5002991;28;19925;-71
2023/05/21 07:59:32;;;;;;;;;;;;;;;18.29;39.74;102810.63;4995873;28;20360;-69
2023/05/21 08:01:58;;;;;;;;;;;;;;;18.35;39.89;102809.97;4993043;28;20343;-69
2023/05/21 08:04:24;;;;;;;;;;;;;;;18.45;40.12;102813.38;4993360;28;19921;-70
2023/05/21 08:06:50;;;;;;;;;;;;;;;18.52;39.13;102830.59;4993056;28;19913;-68
2023/05/21 08:09:15;;;;;;;;;;;;;;;18.64;39.52;102814.97;4992960;28;20282;-68
2023/05/21 08:11:40;;;;;;;;;;;;;;;18.76;39.65;102819.88;4992984;28;19914;-67
2023/05/21 08:14:06;;;;;;;;;;;;;;;18.90;38.87;102821.06;4993133;28;19914;-67
2023/05/21 08:16:31;;;;;;;;;;;;;;;18.96;38.14;102822.25;4975519;28;20015;-66
2023/05/21 08:18:56;;;;;;;;;;;;;;;18.91;38.41;102811.13;4993171;28;20063;-68
2023/05/21 08:21:22;;;;;;;;;;;;;;;18.94;38.68;102811.63;4993043;28;20353;-67
2023/05/21 08:23:47;;;;;;;;;;;;;;;18.87;38.67;102811.47;4993070;28;20008;-69
2023/05/21 08:26:15;;;;;;;;;;;;;;;18.82;39.29;102818.38;4993112;28;19913;-67
2023/05/21 08:28:40;;;;;;;;;;;;;;;18.86;39.59;102819.72;4993280;28;20293;-67
2023/05/21 08:31:05;;;;;;;;;;;;;;;18.98;39.03;102812.13;4992733;28;19922;-69
2023/05/21 08:33:35;;;;;;;;;;;;;;;18.98;38.92;102807.56;4993028;28;20374;-69
2023/05/21 08:36:01;;;;;;;;;;;;;;;18.97;39.25;102808.59;4992822;28;20384;-69
2023/05/21 08:38:26;;;;;;;;;;;;;;;19.13;39.88;102811.31;4992622;28;19922;-68
2023/05/21 08:40:53;;;;;;;;;;;;;;;19.23;38.25;102805.72;4992616;28;19921;-66
2023/05/21 08:43:18;;;;;;;;;;;;;;;19.22;38.83;102801.31;4992892;28;19960;-66
2023/05/21 08:45:45;;;;;;;;;;;;;;;19.25;39.47;102795.59;4992969;28;20330;-66
2023/05/21 08:48:11;;;;;;;;;;;;;;;19.32;37.89;102799.28;4992698;28;19952;-67
2023/05/21 08:50:36;;;;;;;;;;;;;;;19.32;38.34;102793.03;4992766;28;19929;-69
2023/05/21 08:53:01;;;;;;;;;;;;;;;19.22;38.78;102795.94;4994480;28;19922;-67
2023/05/21 08:55:27;;;;;;;;;;;;;;;19.07;39.53;102790.34;4998404;28;19914;-67
2023/05/21 08:57:53;;;;;;;;;;;;;;;19.00;39.59;102785.81;4996646;28;20469;-68
2023/05/21 09:00:19;;;;;;;;;;;;;;;19.01;39.29;102787.50;4997042;28;19960;-68
2023/05/21 09:02:45;;;;;;;;;;;;;;;19.00;39.69;102788.50;4979015;28;19921;-65
2023/05/21 09:05:11;;;;;;;;;;;;;;;19.08;40.01;102783.09;4996206;28;19914;-68
2023/05/21 09:07:43;;;;;;;;;;;;;;;19.07;39.26;102781.41;4996290;28;20736;-68
2023/05/21 09:10:11;;;;;;;;;;;;;;;19.04;40.13;102777.19;4996904;28;19913;-68
2023/05/21 09:12:36;;;;;;;;;;;;;;;19.05;39.53;102769.94;4996385;28;19941;-67
2023/05/21 09:15:02;;;;;;;;;;;;;;;19.11;38.94;102758.47;4996375;28;20281;-66
2023/05/21 09:17:29;;;;;;;;;;;;;;;19.16;39.53;102758.78;4979017;28;19914;-68
2023/05/21 09:20:13;;;;;;;;;;;;;;;19.36;38.67;102762.78;4995621;28;19928;-68
2023/05/21 09:22:40;;;;;;;;;;;;;;;19.46;37.30;102755.38;4996008;28;20363;-67
2023/05/21 09:25:06;;;;;;;;;;;;;;;19.52;37.85;102750.28;4996115;28;19918;-69
2023/05/21 09:27:32;;;;;;;;;;;;;;;19.61;38.16;102741.16;4997625;28;19914;-69
2023/05/21 09:29:57;;;;;;;;;;;;;;;19.89;38.00;102742.38;4996006;28;20412;-70
2023/05/21 09:32:23;;;;;;;;;;;;;;;20.21;37.50;102740.53;4995801;28;19914;-68
2023/05/21 09:34:48;;;;;;;;;;;;;;;20.40;36.57;102749.06;4994845;28;19914;-67
2023/05/21 09:37:14;;;;;;;;;;;;;;;20.49;36.01;102739.03;4995584;28;19953;-69
2023/05/21 09:39:41;;;;;;;;;;;;;;;20.58;36.00;102732.53;4995820;28;19941;-68
2023/05/21 09:42:06;;;;;;;;;;;;;;;20.60;36.28;102730.50;4995714;28;19980;-67
2023/05/21 09:44:31;;;;;;;;;;;;;;;20.47;35.60;102735.66;4995072;28;20346;-67
2023/05/21 09:47:00;;;;;;;;;;;;;;;20.45;35.71;102732.28;4995869;28;20040;-71
2023/05/21 09:49:26;;;;;;;;;;;;;;;20.49;36.02;102736.31;4995469;28;19957;-73
2023/05/21 09:51:58;;;;;;;;;;;;;;;20.57;36.41;102733.56;4994773;28;19921;-68
2023/05/21 09:54:24;;;;;;;;;;;;;;;20.68;37.32;102733.13;4993511;28;19957;-66
2023/05/21 09:56:51;;;;;;;;;;;;;;;20.89;35.70;102732.47;4994840;28;20381;-66
2023/05/21 09:59:16;;;;;;;;;;;;;;;21.04;36.28;102730.59;4994937;28;19917;-66
2023/05/21 10:01:42;;;;;;;;;;;;;;;21.01;35.80;102735.56;4998434;28;19968;-72
2023/05/21 10:04:08;;;;;;;;;;;;;;;20.93;35.72;102731.06;5006418;28;19972;-70
2023/05/21 10:06:36;;;;;;;;;;;;;;;20.98;35.68;102730.50;5003835;28;20016;-65
2023/05/21 10:09:05;;;;;;;;;;;;;;;20.96;35.87;102724.44;5003778;28;19914;-69
2023/05/21 10:11:31;;;;;;;;;;;;;;;20.80;34.82;102720.00;5003791;28;19920;-69
2023/05/21 10:13:59;;;;;;;;;;;;;;;20.64;34.70;102723.69;5005964;28;20281;-67
2023/05/21 10:16:26;;;;;;;;;;;;;;;20.56;34.71;102715.66;5001905;28;19956;-70
2023/05/21 10:18:53;;;;;;;;;;;;;;;20.38;35.58;102715.06;5003021;28;19945;-69
2023/05/21 10:21:20;;;;;;;;;;;;;;;20.24;35.36;102702.28;5005994;28;19913;-68
2023/05/21 10:23:45;;;;;;;;;;;;;;;20.16;35.58;102705.06;5005760;28;20013;-67
2023/05/21 10:26:11;;;;;;;;;;;;;;;19.99;35.90;102710.59;4985389;28;20340;-66
2023/05/21 10:28:37;;;;;;;;;;;;;;;19.86;36.32;102712.16;5002774;28;19922;-70
2023/05/21 10:31:03;;;;;;;;;;;;;;;19.68;36.17;102698.91;5004664;28;19968;-66
2023/05/21 10:33:28;;;;;;;;;;;;;;;19.69;36.04;102700.59;4986847;28;19953;-67
2023/05/21 10:35:57;;;;;;;;;;;;;;;19.62;35.74;102686.06;5002948;28;19992;-66
2023/05/21 10:38:23;;;;;;;;;;;;;;;19.63;36.27;102693.16;4985661;28;19960;-71
2023/05/21 10:40:49;;;;;;;;;;;;;;;19.70;36.13;102689.59;5003776;28;19913;-67
2023/05/21 10:43:24;;;;;;;;;;;;;;;19.65;36.31;102685.72;5002227;28;19932;-66
2023/05/21 10:45:50;;;;;;;;;;;;;;;19.41;36.23;102689.34;5001576;28;19960;-66
2023/05/21 10:48:15;;;;;;;;;;;;;;;19.37;35.95;102694.25;5002513;28;19957;-66
2023/05/21 10:51:00;;;;;;;;;;;;;;;19.44;35.81;102684.44;4987238;28;19948;-67
2023/05/21 10:53:42;;;;;;;;;;;;;;;19.41;35.68;102689.34;5002626;28;19914;-69
2023/05/21 10:56:27;;;;;;;;;;;;;;;19.49;36.12;102687.44;4994697;28;19914;-68
2023/05/21 10:59:11;;;;;;;;;;;;;;;19.55;36.07;102683.22;4995946;28;19937;-70
2023/05/21 11:01:38;;;;;;;;;;;;;;;19.65;35.92;102686.56;4978443;28;19921;-66
2023/05/21 11:04:04;;;;;;;;;;;;;;;19.65;35.41;102683.00;4995180;28;19913;-69
2023/05/21 11:06:30;;;;;;;;;;;;;;;19.69;35.33;102684.38;5000335;28;19965;-70
2023/05/21 11:08:55;;;;;;;;;;;;;;;19.66;35.50;102677.47;5005763;28;20352;-69
2023/05/21 11:11:43;;;;;;;;;;;;;;;19.65;35.88;102680.31;4988787;28;19913;-68
2023/05/21 11:14:27;;;;;;;;;;;;;;;19.60;36.15;102671.91;5014626;28;19918;-70
2023/05/21 11:16:52;;;;;;;;;;;;;;;19.63;36.32;102671.53;4994032;28;20420;-68
2023/05/21 11:19:18;;;;;;;;;;;;;;;19.72;36.16;102670.50;5007997;28;19917;-64
2023/05/21 11:21:49;;;;;;;;;;;;;;;19.76;36.07;102663.72;5015392;28;20012;-69
2023/05/21 11:24:17;;;;;;;;;;;;;;;19.83;36.11;102672.78;4997401;28;19914;-72
2023/05/21 11:26:49;;;;;;;;;;;;;;;19.91;36.31;102672.75;5014975;28;19913;-70
2023/05/21 11:29:15;;;;;;;;;;;;;;;19.88;35.84;102664.16;5011448;28;20000;-69
2023/05/21 11:31:48;;;;;;;;;;;;;;;19.82;35.47;102665.72;5014812;28;20277;-69
2023/05/21 11:34:28;;;;;;;;;;;;;;;19.78;36.44;102665.22;5016411;28;19953;-70
2023/05/21 11:37:12;;;;;;;;;;;;;;;19.87;36.02;102663.31;5014700;28;19943;-66
2023/05/21 11:39:40;;;;;;;;;;;;;;;19.94;36.17;102653.47;5017852;28;20384;-69
2023/05/21 11:42:05;;;;;;;;;;;;;;;19.90;35.97;102659.41;5019506;28;19937;-67
2023/05/21 11:44:37;;;;;;;;;;;;;;;19.89;35.83;102660.44;5007774;28;20365;-70
2023/05/21 11:47:03;;;;;;;;;;;;;;;19.82;35.74;102659.47;4999701;28;19918;-69
2023/05/21 11:49:29;;;;;;;;;;;;;;;19.77;36.34;102655.44;4997102;28;19924;-65
2023/05/21 11:51:55;;;;;;;;;;;;;;;19.83;36.31;102651.16;4994851;28;20408;-66
2023/05/21 11:54:20;;;;;;;;;;;;;;;19.87;35.46;102657.06;4993921;28;19921;-65
2023/05/21 11:56:47;;;;;;;;;;;;;;;19.78;36.02;102653.56;4994147;28;19941;-73
2023/05/21 11:59:15;;;;;;;;;;;;;;;19.78;35.82;102648.16;4984188;28;19941;-69
2023/05/21 12:01:41;;;;;;;;;;;;;;;19.74;35.67;102646.84;4997135;28;19932;-68
2023/05/21 12:04:06;;;;;;;;;;;;;;;19.71;36.18;102641.78;5007680;28;19921;-67
2023/05/21 12:06:33;;;;;;;;;;;;;;;19.69;35.92;102638.41;5004116;28;19921;-68
2023/05/21 12:08:58;;;;;;;;;;;;;;;19.73;35.86;102640.59;4993020;28;19968;-70
2023/05/21 12:11:25;;;;;;;;;;;;;;;19.67;35.66;102635.06;5000825;28;19914;-68
2023/05/21 12:13:51;;;;;;;;;;;;;;;19.57;35.68;102639.81;4981271;28;20001;-68
2023/05/21 12:16:16;;;;;;;;;;;;;;;19.45;36.07;102642.03;4975621;28;19921;-67
2023/05/21 12:18:41;;;;;;;;;;;;;;;19.48;36.28;102639.84;4992811;28;19964;-67
2023/05/21 12:21:07;;;;;;;;;;;;;;;19.54;35.80;102632.06;4992708;28;19921;-66
2023/05/21 12:23:32;;;;;;;;;;;;;;;19.54;35.69;102640.16;4992916;28;20063;-66
2023/05/21 12:25:58;;;;;;;;;;;;;;;19.55;35.32;102637.28;4992938;28;19921;-66
2023/05/21 12:28:23;;;;;;;;;;;;;;;19.61;35.50;102641.16;4992348;28;19914;-67
2023/05/21 12:30:49;;;;;;;;;;;;;;;19.65;35.12;102639.78;4992904;28;19914;-67